Portada
METAR-TAF:

METAR-TAF

Aeropuertos :

Peachtree City Airport (Falcon Field)

Atlanta, Georgia, Estados Unidos

latitud: 33-21-19N, longitud: 084-34-01W, altitud: 246 m

Observación

El informe se hizo hace 27 minutos, a las 22:53 UTC
Viento 3 kt del oeste-suroeste
Temperatura 13°C
Humedad 54%
Presión 1014 hPa
Visibilidad: 16.1 km
Cielo despejado

METAR: KFFC 242253Z AUTO 24003KT 10SM CLR 13/04 A2994 RMK AO2 SLP140 T01280044

Hora: 18:20 (23:20 UTC)


TAF: falta

Observaciones y pronósticos meteorológicos de más de 4000 aeropuertos (mensajes METAR y TAF).

Los puntos amarillos y rojos representan las estaciones disponibles.

Ponga el ratón en el punto deseado para ver el nombre de la estación.

Haga clic para ver las observaciones y los pronósticos meteorológicos.

Para cambiar el mapa : haga clic en los botones verdes con una cruz de color negro para hacer un zoom, en el botón verde con un guión para alejar o en las flechas verdes para mapas adyacentes.


METAR-TAF: